Time;durP1;ratioP1;P1;durP2;ratioP2;P2;SDS_P1;SDS_P2;PMS_P1;PMS_P2;Temp;Humidity;BMP_temperature;BMP_pressure;BME280_temperature;BME280_humidity;BME280_pressure;Samples;Min_cycle;Max_cycle;Signal;HPM_P1;HPM_P2
2021/10/11 00:00:33;226517.00;0.76;391.56;0.00;0.00;0.62;;;;;11.70;1.00;;;;;;2282872;61;1397;-83
2021/10/11 00:03:00;191398.00;0.64;331.12;21589.00;0.07;38.02;;;;;11.80;1.00;;;;;;2281419;61;1435;-83
2021/10/11 00:07:55;152529.00;0.51;264.17;19818.00;0.07;34.95;;;;;11.60;1.00;;;;;;2278688;61;1471;-83
2021/10/11 00:10:25;117414224.00;391.38;65567832.00;0.00;0.00;0.62;;;;;11.90;1.00;;;;;;2277443;40;3687;31
2021/10/11 00:12:56;563985.00;1.88;972.07;141335.00;0.47;244.87;;;;;12.40;1.00;;;;;;2266290;61;1915;-85
2021/10/11 00:15:27;150090.00;0.50;259.96;29131.00;0.10;51.08;;;;;13.00;1.00;;;;;;2265184;61;1011;-84
2021/10/11 00:17:54;84036.00;0.28;146.01;0.00;0.00;0.62;;;;;13.40;1.00;;;;;;2261255;61;1459;-84
2021/10/11 00:20:21;278696.00;0.93;481.30;19305.00;0.06;34.07;;;;;13.80;1.00;;;;;;2261050;61;1062;-84
2021/10/11 00:22:48;197859.00;0.66;342.24;0.00;0.00;0.62;;;;;14.40;1.00;;;;;;2261458;61;1038;-82
2021/10/11 00:25:16;722896.00;2.41;1246.97;126499.00;0.42;219.29;;;;;14.50;1.00;;;;;;2261258;61;1723;-84
2021/10/11 00:32:42;25310.00;0.08;44.46;0.00;0.00;0.62;;;;;15.40;1.00;;;;;;2274795;61;1903;-86
2021/10/11 00:35:10;50614.00;0.17;88.25;0.00;0.00;0.62;;;;;15.50;1.00;;;;;;2268608;61;973;-84
2021/10/11 00:37:37;94715.00;0.32;164.45;0.00;0.00;0.62;;;;;15.20;1.00;;;;;;2260599;61;1481;-84
2021/10/11 00:40:05;32004.00;0.11;56.05;0.00;0.00;0.62;;;;;14.70;1.00;;;;;;2260603;61;1266;-83
2021/10/11 00:42:33;307245.00;1.02;530.37;39314.00;0.13;68.70;;;;;14.80;1.00;;;;;;2260480;61;1366;-82
2021/10/11 00:45:00;59446.00;0.20;103.52;0.00;0.00;0.62;;;;;14.90;1.00;;;;;;2260354;61;1672;-86
2021/10/11 00:47:27;191699.00;0.64;331.63;28369.00;0.09;49.76;;;;;14.70;1.00;;;;;;2252749;61;1454;-84
2021/10/11 00:49:55;29536.00;0.10;51.78;0.00;0.00;0.62;;;;;14.60;1.00;;;;;;2248441;61;1630;-84
2021/10/11 00:52:22;17337.00;0.06;30.66;0.00;0.00;0.62;;;;;14.50;1.00;;;;;;2248407;61;1531;-84
2021/10/11 00:54:49;65930.00;0.22;114.73;0.00;0.00;0.62;;;;;14.40;1.00;;;;;;2246350;61;1983;-84
2021/10/11 00:59:44;63346.00;0.21;110.26;0.00;0.00;0.62;;;;;14.80;1.00;;;;;;2279466;61;1302;-83
2021/10/11 01:02:11;45088.00;0.15;78.69;0.00;0.00;0.62;;;;;15.00;1.00;;;;;;2268477;61;932;-83
2021/10/11 01:09:35;79582.00;0.27;138.32;0.00;0.00;0.62;;;;;15.00;1.00;;;;;;2274595;61;1385;-84
2021/10/11 01:12:03;73039.00;0.24;127.01;0.00;0.00;0.62;;;;;14.80;1.00;;;;;;2264647;61;1061;-81
2021/10/11 01:14:29;125525.00;0.42;217.61;21711.00;0.07;38.23;;;;;14.40;1.00;;;;;;2256654;61;2047;-84
2021/10/11 01:34:13;293543.00;0.98;506.82;0.00;0.00;0.62;;;;;14.80;1.00;;;;;;2278852;61;1974;-83
2021/10/11 01:36:41;498743.00;1.66;859.66;105611.00;0.35;183.26;;;;;13.30;1.00;;;;;;2268386;61;1418;-82
2021/10/11 01:39:10;185244.00;0.62;320.52;0.00;0.00;0.62;;;;;12.50;1.00;;;;;;2268285;61;1294;-83
2021/10/11 01:41:37;14433.00;0.05;25.63;0.00;0.00;0.62;;;;;12.30;1.00;;;;;;2268272;61;1588;-84
2021/10/11 01:44:05;454754.00;1.52;783.96;24340.00;0.08;42.78;;;;;12.60;1.00;;;;;;2268205;61;1308;-84
2021/10/11 01:46:34;123836.00;0.41;214.70;12938.00;0.04;23.04;;;;;12.90;1.00;;;;;;2268081;61;1776;-83
2021/10/11 01:49:00;81570.00;0.27;141.75;0.00;0.00;0.62;;;;;12.90;1.00;;;;;;2268113;61;1318;-86
2021/10/11 01:51:29;114109.00;0.38;197.92;0.00;0.00;0.62;;;;;12.70;1.00;;;;;;2267666;61;1129;-84
2021/10/11 01:53:56;164276.00;0.55;284.41;0.00;0.00;0.62;;;;;12.30;1.00;;;;;;2269708;61;1915;-81
2021/10/11 01:56:23;16605.00;0.06;29.39;0.00;0.00;0.62;;;;;12.00;1.00;;;;;;2276719;61;1407;-83
2021/10/11 01:58:50;124805.00;0.42;216.37;0.00;0.00;0.62;;;;;12.10;1.00;;;;;;2276190;61;1260;-83
2021/10/11 02:01:17;224259.00;0.75;387.67;25904.00;0.09;45.49;;;;;12.70;1.00;;;;;;2270029;61;1009;-84
2021/10/11 02:08:42;97000.00;0.32;168.39;0.00;0.00;0.62;;;;;14.00;1.00;;;;;;2275185;61;987;-83
2021/10/11 02:13:36;142393.00;0.47;246.70;0.00;0.00;0.62;;;;;13.70;1.00;;;;;;2283649;61;1881;-82
2021/10/11 02:18:31;134320.00;0.45;232.78;0.00;0.00;0.62;;;;;13.20;1.00;;;;;;2278287;61;1591;-82
2021/10/11 02:20:58;70278.00;0.23;122.24;0.00;0.00;0.62;;;;;13.20;1.00;;;;;;2277024;61;988;-84
2021/10/11 02:23:26;330325.00;1.10;570.04;0.00;0.00;0.62;;;;;13.30;1.00;;;;;;2264747;61;1021;-83
2021/10/11 02:25:54;4381.00;0.01;8.21;0.00;0.00;0.62;;;;;13.90;1.00;;;;;;2261775;61;1029;-85
2021/10/11 02:30:49;125114.00;0.42;216.90;0.00;0.00;0.62;;;;;14.90;1.00;;;;;;2275216;61;1315;-83
2021/10/11 02:35:44;46918.00;0.16;81.86;0.00;0.00;0.62;;;;;14.90;1.00;;;;;;2283022;60;1373;-82
2021/10/11 02:40:39;51051.00;0.17;89.00;0.00;0.00;0.62;;;;;14.30;1.00;;;;;;2278707;61;1406;-81
2021/10/11 02:43:08;329664.00;1.10;568.91;103554.00;0.35;179.71;;;;;13.70;1.00;;;;;;2268173;61;962;-83
2021/10/11 02:45:35;148831.00;0.50;257.79;0.00;0.00;0.62;;;;;13.40;1.00;;;;;;2268038;61;1723;-85
2021/10/11 02:48:04;84044.00;0.28;146.02;0.00;0.00;0.62;;;;;12.90;1.00;;;;;;2265327;61;1475;-82
2021/10/11 02:57:54;66490.00;0.22;115.69;0.00;0.00;0.62;;;;;13.10;1.00;;;;;;2286285;60;1400;-81
2021/10/11 03:00:23;204445.00;0.68;353.57;0.00;0.00;0.62;;;;;12.30;1.00;;;;;;2287947;60;1048;-82
2021/10/11 03:02:49;53771.00;0.18;93.71;0.00;0.00;0.62;;;;;11.70;1.00;;;;;;2275631;61;980;-84
2021/10/11 03:05:16;85182.00;0.28;147.99;0.00;0.00;0.62;;;;;11.30;1.00;;;;;;2276221;61;1250;-83
2021/10/11 03:07:43;18080.00;0.06;31.95;0.00;0.00;0.62;;;;;11.20;1.00;;;;;;2276143;61;1305;-83
2021/10/11 03:12:39;79409.00;0.26;138.02;0.00;0.00;0.62;;;;;10.70;1.00;;;;;;2274277;61;1426;-84
2021/10/11 03:15:07;8426.00;0.03;15.22;0.00;0.00;0.62;;;;;10.80;1.00;;;;;;2272864;61;1922;-84
2021/10/11 03:17:36;118829576.00;396.10;67969840.00;0.00;0.00;0.62;;;;;10.80;1.00;;;;;;2261955;61;1338;-84
2021/10/11 03:20:04;88995.00;0.30;154.57;0.00;0.00;0.62;;;;;10.90;1.00;;;;;;2256672;61;945;-83
2021/10/11 03:22:31;54494.00;0.18;94.96;0.00;0.00;0.62;;;;;10.90;1.00;;;;;;2256679;61;1177;-83
2021/10/11 03:24:58;299562.00;1.00;517.17;69071.00;0.23;120.16;;;;;10.50;1.00;;;;;;2246691;61;1520;-83
2021/10/11 03:27:25;194667.00;0.65;336.74;0.00;0.00;0.62;;;;;10.10;1.00;;;;;;2255961;61;1302;-85
2021/10/11 03:29:52;148716.00;0.50;257.59;0.00;0.00;0.62;;;;;9.00;1.00;;;;;;2252436;61;1132;-83
2021/10/11 03:32:19;161439.00;0.54;279.52;0.00;0.00;0.62;;;;;8.60;1.00;;;;;;2252495;61;1022;-84
2021/10/11 03:34:47;169650.00;0.57;293.66;0.00;0.00;0.62;;;;;8.30;1.00;;;;;;2253215;61;1998;-85
2021/10/11 03:37:14;113231.00;0.38;196.40;0.00;0.00;0.62;;;;;8.20;1.00;;;;;;2261377;61;1408;-84
2021/10/11 03:39:41;103424.00;0.34;179.48;0.00;0.00;0.62;;;;;7.80;1.00;;;;;;2267510;61;1135;-84
2021/10/11 03:44:36;87403.00;0.29;151.82;0.00;0.00;0.62;;;;;8.40;1.00;;;;;;2278573;61;1413;-83
2021/10/11 03:54:45;201942.00;0.67;349.27;0.00;0.00;0.62;;;;;8.10;1.00;;;;;;2274522;61;1966;-84
2021/10/11 03:59:39;132587.00;0.44;229.79;0.00;0.00;0.62;;;;;8.50;1.00;;;;;;2282547;60;1381;-85
2021/10/11 04:02:07;63443.00;0.21;110.43;0.00;0.00;0.62;;;;;8.70;1.00;;;;;;2281049;60;988;-84
2021/10/11 04:04:35;75226.00;0.25;130.79;0.00;0.00;0.62;;;;;8.50;1.00;;;;;;2276642;60;944;-83
2021/10/11 04:07:06;121441.00;0.40;210.57;0.00;0.00;0.62;;;;;8.60;1.00;;;;;;2277237;60;1411;-84
2021/10/11 04:09:33;38372.00;0.13;67.07;0.00;0.00;0.62;;;;;8.90;1.00;;;;;;2277299;60;981;-84
2021/10/11 04:12:07;54945.00;0.18;95.74;0.00;0.00;0.62;;;;;9.30;1.00;;;;;;2277280;60;1353;-84
2021/10/11 04:14:34;59687.00;0.20;103.94;0.00;0.00;0.62;;;;;10.30;1.50;;;;;;2273055;60;2006;-83
2021/10/11 04:17:01;26594.00;0.09;46.69;0.00;0.00;0.62;;;;;11.40;1.00;;;;;;2273265;60;1378;-84
2021/10/11 04:19:28;61841.00;0.21;107.66;0.00;0.00;0.62;;;;;12.10;1.00;;;;;;2273265;60;1825;-81
2021/10/11 04:21:55;153623.00;0.51;266.05;0.00;0.00;0.62;;;;;12.50;1.00;;;;;;2272123;60;1627;-84
2021/10/11 04:24:22;117784.00;0.39;204.26;0.00;0.00;0.62;;;;;13.20;1.00;;;;;;2268497;61;993;-83
2021/10/11 04:26:49;60933.00;0.20;106.09;0.00;0.00;0.62;;;;;13.40;1.00;;;;;;2268870;61;1293;-84
2021/10/11 04:29:17;147184.00;0.49;254.95;10737.00;0.04;19.23;;;;;13.40;1.00;;;;;;2268864;61;1721;-80
2021/10/11 04:31:44;83980.00;0.28;145.91;0.00;0.00;0.62;;;;;13.30;1.00;;;;;;2270484;60;1131;-81
2021/10/11 04:34:11;44655.00;0.15;77.94;0.00;0.00;0.62;;;;;13.30;1.00;;;;;;2281643;60;2004;-84
2021/10/11 04:36:39;29219.00;0.10;51.23;0.00;0.00;0.62;;;;;13.50;1.00;;;;;;2281895;60;1387;-83
2021/10/11 04:39:08;58393.00;0.19;101.70;0.00;0.00;0.62;;;;;13.70;1.00;;;;;;2276917;61;1614;-83
2021/10/11 04:41:34;98143.00;0.33;170.37;0.00;0.00;0.62;;;;;14.00;1.00;;;;;;2276628;61;1667;-81
2021/10/11 04:44:01;65042.00;0.22;113.19;0.00;0.00;0.62;;;;;13.80;1.00;;;;;;2276859;61;1063;-85
2021/10/11 04:46:30;194633.00;0.65;336.68;0.00;0.00;0.62;;;;;14.00;1.00;;;;;;2270112;61;1353;-82
2021/10/11 04:48:57;279484.00;0.93;482.65;29190.00;0.10;51.18;;;;;13.40;1.00;;;;;;2276011;61;1816;-83
2021/10/11 04:51:24;18011.00;0.06;31.83;0.00;0.00;0.62;;;;;13.50;1.00;;;;;;2276839;61;1404;-82
2021/10/11 04:53:51;76191.00;0.25;132.46;0.00;0.00;0.62;;;;;13.60;1.00;;;;;;2269897;61;1998;-81
2021/10/11 04:56:17;291774.00;0.97;503.78;61656.00;0.21;107.34;;;;;13.80;1.00;;;;;;2268712;61;1399;-83
2021/10/11 04:58:45;77905.00;0.26;135.42;0.00;0.00;0.62;;;;;13.90;1.00;;;;;;2268462;61;1009;-83
2021/10/11 05:01:12;69441.00;0.23;120.79;0.00;0.00;0.62;;;;;13.70;1.00;;;;;;2276602;61;1114;-84
2021/10/11 05:03:40;31318.00;0.10;54.86;0.00;0.00;0.62;;;;;13.50;1.00;;;;;;2268586;61;928;-84
2021/10/11 05:18:26;108682.00;0.36;188.56;0.00;0.00;0.62;;;;;10.70;1.00;;;;;;2498542;40;1913;31
2021/10/11 05:20:57;71817.00;0.24;124.90;0.00;0.00;0.62;;;;;10.40;1.00;;;;;;2270446;61;1338;-85
2021/10/11 05:25:52;288898.00;0.96;498.83;36315.00;0.12;63.51;;;;;8.90;1.00;;;;;;2278585;61;1426;-83
2021/10/11 05:28:19;81934.00;0.27;142.38;0.00;0.00;0.62;;;;;7.90;1.00;;;;;;2276795;61;1341;-82
2021/10/11 05:30:48;148997.00;0.50;258.08;0.00;0.00;0.62;;;;;8.10;1.00;;;;;;2276912;61;1732;-83
2021/10/11 05:33:16;62514.00;0.21;108.82;0.00;0.00;0.62;;;;;8.10;1.00;;;;;;2276731;61;1793;-83
2021/10/11 05:35:43;143598.00;0.48;248.77;0.00;0.00;0.62;;;;;8.70;1.00;;;;;;2276572;61;1935;-83
2021/10/11 05:38:11;91792.00;0.31;159.40;0.00;0.00;0.62;;;;;8.70;1.00;;;;;;2276862;61;1409;-87
2021/10/11 05:40:38;98572.00;0.33;171.11;0.00;0.00;0.62;;;;;8.20;1.00;;;;;;2268327;61;952;-81
2021/10/11 05:43:07;72763.00;0.24;126.53;0.00;0.00;0.62;;;;;7.80;1.00;;;;;;2268231;61;987;-81
2021/10/11 05:45:34;127572.00;0.43;221.14;0.00;0.00;0.62;;;;;7.80;1.00;;;;;;2268160;61;1687;-84
2021/10/11 05:48:01;40656.00;0.14;71.02;0.00;0.00;0.62;;;;;7.90;1.00;;;;;;2260391;61;1365;-84
2021/10/11 05:52:58;112629.00;0.38;195.37;0.00;0.00;0.62;;;;;8.60;1.00;;;;;;2282341;61;1397;-82
2021/10/11 05:55:28;251376.00;0.84;434.32;89831.00;0.30;156.02;;;;;9.20;1.00;;;;;;2280647;61;2027;-83
2021/10/11 05:57:55;219728.00;0.73;379.88;107405.00;0.36;186.35;;;;;10.20;1.00;;;;;;2280866;61;1466;-83
2021/10/11 06:00:23;184254.00;0.61;318.82;86076.00;0.29;149.53;;;;;10.60;1.00;;;;;;2277230;61;1219;-83
2021/10/11 06:02:50;290268.00;0.97;501.19;95936.00;0.32;166.56;;;;;10.90;1.00;;;;;;2280740;60;1016;-84
2021/10/11 06:05:17;596909.00;1.99;1028.88;174532.00;0.58;302.07;;;;;10.40;1.00;;;;;;2276335;61;934;-83
2021/10/11 06:07:44;196726.00;0.66;340.29;91558.00;0.31;159.00;;;;;10.10;1.00;;;;;;2276349;61;1455;-83
2021/10/11 06:10:11;378075.00;1.26;652.12;105016.00;0.35;182.23;;;;;10.30;1.00;;;;;;2268430;61;986;-82
2021/10/11 06:15:08;431904.00;1.44;744.66;89869.00;0.30;156.08;;;;;9.30;1.00;;;;;;2278630;61;1992;-82
2021/10/11 06:22:31;287657.00;0.96;496.70;90053.00;0.30;156.40;;;;;9.90;1.00;;;;;;2274993;61;1442;-84
2021/10/11 06:24:59;339103.00;1.13;585.13;98648.00;0.33;171.24;;;;;10.10;1.00;;;;;;2273035;61;961;-82
2021/10/11 06:37:18;202642.00;0.68;350.47;101289.00;0.34;175.80;;;;;10.30;1.00;;;;;;2515434;40;3587;31
2021/10/11 06:44:45;311628.00;1.04;537.91;99604.00;0.33;172.89;;;;;10.80;1.00;;;;;;2438020;40;3734;31
2021/10/11 07:16:46;537144.00;1.79;925.80;108698.00;0.36;188.58;;;;;11.30;1.00;;;;;;2274024;61;1432;-86
2021/10/11 07:21:43;468125.00;1.56;806.96;104343.00;0.35;181.07;;;;;11.20;1.00;;;;;;2283251;61;1306;-85
2021/10/11 07:58:43;543813.00;1.81;937.29;86471.00;0.29;150.21;;;;;13.50;1.00;;;;;;2282919;61;1161;-84
2021/10/11 08:01:10;387509.00;1.29;668.33;90231.00;0.30;156.71;;;;;13.60;1.00;;;;;;2281163;61;1005;-90
2021/10/11 08:25:48;489032.00;1.63;842.94;81057.00;0.27;140.86;;;;;15.10;1.00;;;;;;2283905;61;920;-88
2021/10/11 09:05:23;295502.00;0.99;510.19;0.00;0.00;0.62;;;;;15.30;1.00;;;;;;2283680;61;878;-88
2021/10/11 09:07:52;342303.00;1.14;590.63;0.00;0.00;0.62;;;;;15.40;1.00;;;;;;2516967;40;3943;31
2021/10/11 09:15:15;567100.00;1.89;977.44;90112.00;0.30;156.50;;;;;16.10;1.00;;;;;;2287403;61;1877;-85
2021/10/11 09:39:59;582580.00;1.94;1004.15;88842.00;0.30;154.31;;;;;17.30;1.00;;;;;;2514117;40;3441;31
2021/10/11 10:46:35;39603.00;0.13;69.20;0.00;0.00;0.62;;;;;18.00;1.00;;;;;;2517270;55;3606;31
2021/10/11 11:26:04;112898.00;0.38;195.83;21071.00;0.07;37.12;;;;;18.90;1.00;;;;;;2284277;61;892;-87
2021/10/11 12:35:08;524487.00;1.75;903.99;92774.00;0.31;161.10;;;;;18.80;1.00;;;;;;2284033;61;1954;-87
2021/10/11 12:57:49;212055.00;0.71;366.67;0.00;0.00;0.62;;;;;19.70;1.00;;;;;;2519879;55;3079;31
2021/10/11 13:10:53;54965.00;0.18;95.77;0.00;0.00;0.62;;;;;19.50;1.00;;;;;;2283810;61;945;-85
2021/10/11 16:30:09;534018.00;1.78;920.41;77731.00;0.26;135.12;;;;;17.00;1.00;;;;;;2275341;61;951;-86
2021/10/11 18:21:49;64278.00;0.21;111.87;0.00;0.00;0.62;;;;;18.80;1.00;;;;;;2275672;61;932;-88
2021/10/11 18:44:19;114113.00;0.38;197.93;0.00;0.00;0.62;;;;;18.90;1.00;;;;;;2283394;61;896;-89
2021/10/11 19:41:05;291381.00;0.97;503.10;38298.00;0.13;66.94;;;;;19.10;1.00;;;;;;2280009;61;880;-89
2021/10/11 21:27:21;270215.00;0.90;466.71;92310.00;0.31;160.30;;;;;16.40;1.00;;;;;;2514295;55;3592;31
2021/10/11 21:32:17;455255.00;1.52;784.82;82146.00;0.27;142.74;;;;;16.80;1.00;;;;;;2279346;61;896;-89
2021/10/11 22:51:47;43497.00;0.14;75.94;0.00;0.00;0.62;;;;;17.00;1.00;;;;;;2287506;61;888;-88
